Kinde, Michigan
Current Conditions -  °F | °C
As of 3:35 AM on Sunday 28 Dec 2014 (Local Time) from KBAX Reporting Station
Overcast Overcast  
Wind Chill: 28°   Ceiling: 3700
Heat Index: 33°   Visibility: 10mi
Dew Point: 29°   Wind: 5mph
Humidity: 87%   Direction: 320°NW
Pressure: 29.99"   Gusts: NA
Location:  43.94°N, 83°W
Report Text: KBAX 280835Z AUTO 32004KT 10SM OVC037 00/M02 A2999 RMK AO2 T00041016
Loading
Personal Weather Stations






























Interactive Weather Map New forecast layout! Learn more

10-Day Weather Forecast

Advertisements
Track Severe Weather on mobile